Time;durP1;ratioP1;P1;durP2;ratioP2;P2;SDS_P1;SDS_P2;PMS_P1;PMS_P2;Temp;Humidity;BMP_temperature;BMP_pressure;BME280_temperature;BME280_humidity;BME280_pressure;Samples;Min_cycle;Max_cycle;Signal;HPM_P1;HPM_P2
2021/10/06 00:00:52;;;;;;;493.67;469.43;;;10.50;99.90;;;;;;4410226;32;20518;-71
2021/10/06 00:03:20;;;;;;;501.03;477.37;;;10.50;99.90;;;;;;4407541;32;20591;-67
2021/10/06 00:05:52;;;;;;;493.70;469.90;;;10.60;99.90;;;;;;4405559;32;20584;-67
2021/10/06 00:08:19;;;;;;;505.00;480.83;;;10.60;99.90;;;;;;4405676;32;20135;-69
2021/10/06 00:10:46;;;;;;;482.47;459.40;;;10.60;99.90;;;;;;4405488;32;20195;-69
2021/10/06 00:13:15;;;;;;;487.13;463.47;;;10.60;99.90;;;;;;4405454;32;20243;-68
2021/10/06 00:15:43;;;;;;;486.07;462.47;;;10.50;99.90;;;;;;4405279;32;20198;-69
2021/10/06 00:18:17;;;;;;;472.53;450.23;;;10.60;99.90;;;;;;4405460;32;20148;-67
2021/10/06 00:20:47;;;;;;;494.13;470.50;;;10.50;99.90;;;;;;4405488;32;20135;-68
2021/10/06 00:23:18;;;;;;;471.67;449.37;;;10.50;99.90;;;;;;4407170;32;20237;-69
2021/10/06 00:25:59;;;;;;;493.80;469.97;;;10.50;99.90;;;;;;4406245;32;20568;-69
2021/10/06 00:28:37;;;;;;;483.57;460.20;;;10.60;99.90;;;;;;4405865;32;20179;-68
2021/10/06 00:31:06;;;;;;;479.87;456.97;;;10.60;99.90;;;;;;4417236;32;20635;-68
2021/10/06 00:33:37;;;;;;;476.07;452.63;;;10.70;99.90;;;;;;4415345;32;20151;-69
2021/10/06 00:36:04;;;;;;;472.13;449.00;;;10.70;99.90;;;;;;4405285;32;20128;-68
2021/10/06 00:38:33;;;;;;;477.77;455.30;;;10.70;99.90;;;;;;4404920;32;20197;-67
2021/10/06 00:41:11;;;;;;;458.63;436.83;;;10.70;99.90;;;;;;4405360;32;20127;-67
2021/10/06 00:43:39;;;;;;;497.97;474.23;;;10.70;99.90;;;;;;4406979;32;20166;-68
2021/10/06 00:46:06;;;;;;;470.63;448.47;;;10.70;99.90;;;;;;4405236;32;20195;-68
2021/10/06 00:48:33;;;;;;;476.20;453.73;;;10.70;99.90;;;;;;4405337;32;20168;-69
2021/10/06 00:51:00;;;;;;;473.50;450.30;;;10.70;99.90;;;;;;4405335;32;20141;-69
2021/10/06 00:53:27;;;;;;;470.17;448.03;;;10.80;99.90;;;;;;4417090;32;20262;-68
2021/10/06 00:56:02;;;;;;;476.43;453.77;;;10.70;99.90;;;;;;4425163;32;20140;-69
2021/10/06 00:58:36;;;;;;;479.33;456.93;;;10.80;99.90;;;;;;4418728;32;20577;-68
2021/10/06 01:04:15;;;;;;;478.00;455.57;;;10.90;99.90;;;;;;4348926;33;20156;-69
2021/10/06 01:06:45;;;;;;;453.33;431.90;;;10.80;99.90;;;;;;4344672;32;20207;-68
2021/10/06 01:09:13;;;;;;;475.47;453.17;;;10.90;99.90;;;;;;4373345;32;20160;-68
2021/10/06 01:11:40;;;;;;;466.50;444.47;;;10.80;99.90;;;;;;4359915;32;20194;-68
2021/10/06 01:14:11;;;;;;;464.20;442.50;;;10.90;99.90;;;;;;4357783;33;20280;-69
2021/10/06 01:16:49;;;;;;;464.63;441.80;;;10.90;99.90;;;;;;4353991;32;20637;-69
2021/10/06 01:22:43;;;;;;;440.93;420.43;;;10.90;99.90;;;;;;4358138;32;20690;-71
2021/10/06 01:25:12;;;;;;;472.37;450.33;;;10.90;99.90;;;;;;4361876;32;20176;-71
2021/10/06 01:27:42;;;;;;;501.33;477.43;;;10.90;99.90;;;;;;4360538;32;20203;-70
2021/10/06 01:30:15;;;;;;;458.00;436.93;;;10.90;99.90;;;;;;4360370;33;20215;-70
2021/10/06 01:32:47;;;;;;;463.03;440.90;;;10.90;99.90;;;;;;4362250;32;20140;-70
2021/10/06 01:35:37;;;;;;;;;;;;;;;;;;;;;
2021/10/06 01:38:05;;;;;;;467.70;445.83;;;10.90;99.90;;;;;;4360415;33;20168;-70
2021/10/06 01:40:32;;;;;;;473.50;451.37;;;11.00;99.90;;;;;;4366766;32;20235;-69
2021/10/06 01:43:05;;;;;;;474.23;451.70;;;10.90;99.90;;;;;;4423829;32;20168;-70
2021/10/06 01:45:34;;;;;;;470.43;448.10;;;10.90;99.90;;;;;;4421688;32;20200;-70
2021/10/06 01:48:08;;;;;;;473.00;451.23;;;10.90;99.90;;;;;;4422736;32;20147;-70
2021/10/06 01:50:39;;;;;;;465.50;442.83;;;10.90;99.90;;;;;;4407678;32;20147;-71
2021/10/06 01:53:10;;;;;;;453.07;432.40;;;10.90;99.90;;;;;;4415495;32;20479;-69
2021/10/06 01:55:37;;;;;;;448.70;428.23;;;10.90;99.90;;;;;;4408574;32;20536;-70
2021/10/06 01:58:07;;;;;;;482.87;460.03;;;10.90;99.90;;;;;;4422306;32;20163;-70
2021/10/06 02:00:40;;;;;;;466.43;444.40;;;10.80;99.90;;;;;;4415112;32;20615;-69
2021/10/06 02:03:13;;;;;;;471.10;448.80;;;10.80;99.90;;;;;;4422544;32;20319;-69
2021/10/06 02:05:40;;;;;;;481.77;458.83;;;10.90;99.90;;;;;;4423051;32;20494;-70
2021/10/06 02:08:17;;;;;;;484.00;460.77;;;10.90;99.90;;;;;;4422666;32;20222;-68
2021/10/06 02:10:50;;;;;;;480.07;457.57;;;11.00;99.90;;;;;;4422610;32;20156;-69
2021/10/06 02:13:33;;;;;;;500.07;476.10;;;11.00;99.90;;;;;;4410104;32;20166;-69
2021/10/06 02:16:00;;;;;;;474.83;452.80;;;11.00;99.90;;;;;;4407384;32;20175;-69
2021/10/06 02:18:36;;;;;;;474.90;452.77;;;11.00;99.90;;;;;;4408969;32;20159;-69
2021/10/06 02:21:07;;;;;;;463.10;441.37;;;11.00;99.90;;;;;;4408518;32;20433;-68
2021/10/06 02:23:35;;;;;;;467.10;444.97;;;10.90;99.90;;;;;;4407470;32;20539;-69
2021/10/06 02:26:06;;;;;;;481.27;458.50;;;10.90;99.90;;;;;;4408721;32;20168;-68
2021/10/06 02:28:38;;;;;;;468.43;446.83;;;10.90;99.90;;;;;;4409664;32;20143;-69
2021/10/06 02:33:50;;;;;;;449.47;428.20;;;10.90;99.90;;;;;;4422210;32;20198;-69
2021/10/06 02:36:26;;;;;;;476.20;453.27;;;10.90;99.90;;;;;;4421517;32;20147;-69
2021/10/06 02:39:01;;;;;;;463.37;441.70;;;10.90;99.90;;;;;;4422126;32;20560;-69
2021/10/06 02:41:35;;;;;;;475.60;453.37;;;10.90;99.90;;;;;;4421755;32;20634;-68
2021/10/06 02:44:03;;;;;;;454.77;432.53;;;10.90;99.90;;;;;;4406663;32;20158;-70
2021/10/06 02:46:32;;;;;;;456.10;434.37;;;10.90;99.90;;;;;;4409357;32;20174;-70
2021/10/06 02:49:02;;;;;;;476.13;453.93;;;10.80;99.90;;;;;;4423283;32;20158;-69
2021/10/06 02:51:35;;;;;;;463.23;442.10;;;10.80;99.90;;;;;;4423771;32;20152;-69
2021/10/06 02:54:03;;;;;;;475.27;453.10;;;10.80;99.90;;;;;;4422019;32;20137;-70
2021/10/06 02:56:32;;;;;;;462.90;441.70;;;10.80;99.90;;;;;;4418672;32;20208;-70
2021/10/06 02:59:01;;;;;;;458.27;437.37;;;10.70;99.90;;;;;;4406675;32;20155;-70
2021/10/06 03:01:30;;;;;;;451.93;431.07;;;10.70;99.90;;;;;;4421239;32;20186;-71
2021/10/06 03:03:59;;;;;;;454.23;433.63;;;10.70;99.90;;;;;;4410230;32;20147;-70
2021/10/06 03:06:36;;;;;;;449.47;428.87;;;10.70;99.90;;;;;;4408574;32;20568;-71
2021/10/06 03:09:06;;;;;;;440.50;420.70;;;10.60;99.90;;;;;;4406937;32;20143;-71
2021/10/06 03:11:37;;;;;;;438.23;418.23;;;10.60;99.90;;;;;;4406797;32;20148;-70
2021/10/06 03:14:06;;;;;;;433.57;414.10;;;10.60;99.90;;;;;;4407017;32;20128;-70
2021/10/06 03:16:37;;;;;;;435.73;415.60;;;10.60;99.90;;;;;;4407480;32;20140;-68
2021/10/06 03:19:06;;;;;;;448.83;428.10;;;10.60;99.90;;;;;;4406630;32;20140;-70
2021/10/06 03:21:36;;;;;;;451.83;431.27;;;10.60;99.90;;;;;;4413900;32;20544;-71
2021/10/06 03:24:10;;;;;;;456.77;435.63;;;10.60;99.90;;;;;;4421575;32;20148;-70
2021/10/06 03:26:36;;;;;;;436.67;417.00;;;10.60;99.90;;;;;;4421266;32;20147;-69
2021/10/06 03:29:04;;;;;;;452.97;432.83;;;10.70;99.90;;;;;;4421634;32;20162;-70
2021/10/06 03:31:31;;;;;;;448.33;428.20;;;10.60;99.90;;;;;;4412699;32;20174;-69
2021/10/06 03:34:02;;;;;;;454.77;434.17;;;10.60;99.90;;;;;;4406285;32;20475;-69
2021/10/06 03:36:30;;;;;;;437.17;417.47;;;10.60;99.90;;;;;;4411200;32;20183;-69
2021/10/06 03:38:59;;;;;;;431.90;412.23;;;10.60;99.90;;;;;;4406332;32;20140;-69
2021/10/06 03:41:29;;;;;;;456.33;435.83;;;10.60;99.90;;;;;;4412792;32;20147;-69
2021/10/06 03:44:02;;;;;;;453.43;433.27;;;10.50;99.90;;;;;;4421412;32;20599;-69
2021/10/06 03:46:32;;;;;;;443.57;423.70;;;10.50;99.90;;;;;;4421124;32;20178;-70
2021/10/06 03:49:01;;;;;;;440.50;420.37;;;10.50;99.90;;;;;;4421230;32;20182;-69
2021/10/06 03:51:37;;;;;;;442.03;421.93;;;10.50;99.90;;;;;;4421106;32;20154;-70
2021/10/06 03:54:09;;;;;;;441.53;421.87;;;10.50;99.90;;;;;;4420165;32;20147;-69
2021/10/06 03:57:08;;;;;;;442.33;422.07;;;10.50;99.90;;;;;;4420256;32;20153;-69
2021/10/06 03:59:35;;;;;;;405.17;387.23;;;10.50;99.90;;;;;;4406873;32;20179;-70
2021/10/06 04:02:02;;;;;;;428.93;409.60;;;10.50;99.90;;;;;;4405875;32;20158;-68
2021/10/06 04:04:53;;;;;;;431.80;412.40;;;10.50;99.90;;;;;;4406157;32;20140;-71
2021/10/06 04:07:27;;;;;;;434.37;414.77;;;10.50;99.90;;;;;;4344544;33;20588;-69
2021/10/06 04:09:57;;;;;;;441.90;422.20;;;10.40;99.90;;;;;;4343474;33;20165;-71
2021/10/06 04:12:33;;;;;;;438.33;418.73;;;10.40;99.90;;;;;;4356973;33;20161;-69
2021/10/06 04:15:07;;;;;;;442.30;422.13;;;10.40;99.90;;;;;;4355963;32;20553;-69
2021/10/06 04:17:36;;;;;;;435.47;415.63;;;10.40;99.90;;;;;;4343638;33;20577;-70
2021/10/06 04:20:08;;;;;;;429.80;410.43;;;10.40;99.90;;;;;;4343081;33;20168;-69
2021/10/06 04:22:37;;;;;;;434.90;415.53;;;10.40;99.90;;;;;;4344267;33;20185;-69
2021/10/06 04:25:10;;;;;;;433.80;414.67;;;10.40;99.90;;;;;;4343540;33;20214;-68
2021/10/06 04:27:46;;;;;;;454.97;433.70;;;10.40;99.90;;;;;;4351514;33;20162;-69
2021/10/06 04:30:13;;;;;;;426.90;408.03;;;10.40;99.90;;;;;;4358413;33;20148;-67
2021/10/06 04:32:45;;;;;;;448.53;427.77;;;10.40;99.90;;;;;;4348851;33;20205;-68
2021/10/06 04:35:12;;;;;;;454.87;433.80;;;10.40;99.90;;;;;;4343971;33;20153;-69
2021/10/06 04:37:38;;;;;;;455.57;434.50;;;10.40;99.90;;;;;;4343088;33;20245;-69
2021/10/06 04:40:08;;;;;;;450.17;429.30;;;10.40;99.90;;;;;;4343172;33;20198;-68
2021/10/06 04:42:37;;;;;;;438.50;418.40;;;10.40;99.90;;;;;;4343396;33;20549;-67
2021/10/06 04:45:14;;;;;;;446.73;426.53;;;10.40;99.90;;;;;;4389728;32;20148;-68
2021/10/06 04:47:47;;;;;;;441.17;421.20;;;10.50;99.90;;;;;;4392323;32;20151;-69
2021/10/06 04:50:27;;;;;;;441.13;420.83;;;10.40;99.90;;;;;;4405096;32;20164;-70
2021/10/06 04:52:55;;;;;;;458.60;437.43;;;10.50;99.90;;;;;;4391420;32;20199;-67
2021/10/06 04:55:22;;;;;;;466.53;444.87;;;10.50;99.90;;;;;;4405510;32;20148;-67
2021/10/06 04:57:58;;;;;;;457.10;436.23;;;10.50;99.90;;;;;;4413424;32;20213;-66
2021/10/06 05:00:29;;;;;;;458.17;437.03;;;10.50;99.90;;;;;;4423304;32;20147;-67
2021/10/06 05:02:56;;;;;;;439.10;418.67;;;10.50;99.90;;;;;;4422508;32;20547;-66
2021/10/06 05:05:26;;;;;;;441.77;421.47;;;10.50;99.90;;;;;;4422824;32;20151;-66
2021/10/06 05:07:54;;;;;;;448.03;427.57;;;10.60;99.90;;;;;;4423723;32;20170;-67
2021/10/06 05:10:21;;;;;;;439.60;419.03;;;10.60;99.90;;;;;;4421875;32;20201;-68
2021/10/06 05:12:59;;;;;;;444.67;424.47;;;10.60;99.90;;;;;;4423532;32;20165;-68
2021/10/06 05:15:30;;;;;;;447.43;426.53;;;10.50;99.90;;;;;;4410695;32;20156;-71
2021/10/06 05:17:59;;;;;;;451.40;431.23;;;10.60;99.90;;;;;;4408665;32;20148;-67
2021/10/06 05:20:31;;;;;;;435.93;415.97;;;10.60;99.90;;;;;;4422249;32;20582;-70
2021/10/06 05:22:58;;;;;;;455.93;435.13;;;10.60;99.90;;;;;;4426385;32;20151;-67
2021/10/06 05:25:28;;;;;;;467.53;445.67;;;10.60;99.90;;;;;;4419989;32;20855;-67
2021/10/06 05:27:57;;;;;;;450.37;429.73;;;10.60;99.90;;;;;;4416551;32;20155;-67
2021/10/06 05:30:25;;;;;;;498.63;474.80;;;10.60;99.90;;;;;;4419376;32;20509;-67
2021/10/06 05:32:53;;;;;;;476.10;454.50;;;10.70;99.90;;;;;;4421510;32;20188;-68
2021/10/06 05:35:21;;;;;;;477.80;456.03;;;10.70;99.90;;;;;;4420165;32;20148;-68
2021/10/06 05:37:50;;;;;;;468.83;447.13;;;10.70;99.90;;;;;;4420791;32;20504;-67
2021/10/06 05:40:18;;;;;;;469.70;448.27;;;10.70;99.90;;;;;;4420992;32;20197;-68
2021/10/06 05:42:45;;;;;;;469.57;447.90;;;10.70;99.90;;;;;;4420857;32;20170;-68
2021/10/06 05:45:15;;;;;;;467.97;446.73;;;10.70;99.90;;;;;;4418536;32;20139;-68
2021/10/06 05:47:42;;;;;;;480.73;458.53;;;10.70;99.90;;;;;;4418181;32;20238;-67
2021/10/06 05:50:13;;;;;;;486.27;462.90;;;10.80;99.90;;;;;;4417795;32;20493;-68
2021/10/06 05:52:43;;;;;;;481.97;458.77;;;10.70;99.90;;;;;;4417250;32;20203;-68
2021/10/06 05:55:13;;;;;;;469.03;446.97;;;10.80;99.90;;;;;;4418934;32;20822;-70
2021/10/06 05:57:43;;;;;;;488.43;464.77;;;10.70;99.90;;;;;;4417716;32;20764;-69
2021/10/06 06:00:11;;;;;;;487.63;464.07;;;10.70;99.90;;;;;;4418291;32;20219;-71
2021/10/06 06:02:44;;;;;;;471.87;449.37;;;10.80;99.90;;;;;;4420590;32;20471;-68
2021/10/06 06:05:12;;;;;;;496.83;473.37;;;10.80;99.90;;;;;;4414418;32;20260;-68
2021/10/06 06:08:22;;;;;;;484.23;461.40;;;10.80;99.90;;;;;;4420771;32;20501;-70
2021/10/06 06:10:54;;;;;;;459.53;437.83;;;10.90;99.90;;;;;;4421244;32;20242;-68
2021/10/06 06:13:21;;;;;;;468.43;446.40;;;10.90;99.90;;;;;;4416488;32;20225;-69
2021/10/06 06:20:00;;;;;;;435.67;414.97;;;10.90;99.90;;;;;;4419981;32;20279;-69
2021/10/06 06:22:31;;;;;;;453.53;432.40;;;11.00;99.90;;;;;;4420291;32;20174;-68
2021/10/06 06:24:58;;;;;;;458.17;436.97;;;11.10;99.90;;;;;;4414361;32;20179;-68
2021/10/06 06:27:30;;;;;;;490.00;465.77;;;11.10;99.90;;;;;;4420046;32;20170;-68
2021/10/06 06:30:09;;;;;;;475.37;451.77;;;11.20;99.90;;;;;;4418067;32;20148;-69
2021/10/06 06:32:38;;;;;;;491.10;467.27;;;11.20;99.90;;;;;;4420587;32;20147;-68
2021/10/06 06:35:06;;;;;;;488.93;465.53;;;11.20;99.90;;;;;;4421937;32;20148;-69
2021/10/06 06:37:35;;;;;;;487.73;464.47;;;11.20;99.90;;;;;;4422032;32;20217;-68
2021/10/06 06:40:02;;;;;;;470.17;446.80;;;11.20;99.90;;;;;;4419308;32;20155;-68
2021/10/06 06:42:28;;;;;;;476.17;453.23;;;11.20;99.90;;;;;;4421795;32;20250;-68
2021/10/06 06:44:55;;;;;;;471.37;449.50;;;11.30;99.90;;;;;;4416894;32;20471;-68
2021/10/06 06:47:26;;;;;;;470.37;447.70;;;11.30;99.90;;;;;;4420731;32;20155;-67
2021/10/06 06:49:58;;;;;;;485.23;461.70;;;11.30;99.90;;;;;;4418885;32;20151;-68
2021/10/06 06:52:25;;;;;;;462.33;439.87;;;11.30;99.90;;;;;;4422760;32;20159;-68
2021/10/06 06:54:53;;;;;;;466.23;443.70;;;11.30;99.90;;;;;;4420604;32;20177;-68
2021/10/06 06:57:20;;;;;;;459.07;436.77;;;11.30;99.90;;;;;;4420494;32;20684;-67
2021/10/06 06:59:50;;;;;;;448.43;427.23;;;11.40;99.90;;;;;;4418815;32;20166;-68
2021/10/06 07:02:17;;;;;;;470.23;447.87;;;11.40;99.90;;;;;;4418406;32;20144;-68
2021/10/06 07:04:44;;;;;;;485.47;461.80;;;11.40;99.90;;;;;;4419980;32;20173;-68
2021/10/06 07:07:13;;;;;;;481.47;458.30;;;11.50;99.90;;;;;;4419825;32;20233;-68
2021/10/06 07:09:47;;;;;;;484.83;461.47;;;11.50;99.90;;;;;;4421790;32;20147;-68
2021/10/06 07:12:25;;;;;;;480.63;457.47;;;11.50;99.90;;;;;;4420445;32;20197;-68
2021/10/06 07:14:54;;;;;;;457.67;435.73;;;11.40;99.90;;;;;;4421473;32;20494;-69
2021/10/06 07:17:23;;;;;;;450.70;429.27;;;11.40;99.90;;;;;;4421014;32;20170;-69
2021/10/06 07:19:52;;;;;;;459.70;438.03;;;11.40;99.90;;;;;;4421554;32;20151;-70
2021/10/06 07:22:20;;;;;;;454.83;432.90;;;11.40;99.90;;;;;;4420189;32;20183;-69
2021/10/06 07:24:55;;;;;;;456.93;434.73;;;11.40;99.90;;;;;;4420001;32;20164;-67
2021/10/06 07:27:26;;;;;;;437.87;417.37;;;11.50;99.90;;;;;;4409472;32;20218;-67
2021/10/06 07:29:53;;;;;;;458.83;437.67;;;11.40;99.90;;;;;;4410248;32;20724;-69
2021/10/06 07:32:23;;;;;;;484.90;461.67;;;11.40;99.90;;;;;;4409388;32;20261;-69
2021/10/06 07:34:56;;;;;;;463.07;442.03;;;11.40;99.90;;;;;;4401626;32;20174;-68
2021/10/06 07:37:23;;;;;;;470.53;448.73;;;11.40;99.90;;;;;;4401569;32;20230;-69
2021/10/06 07:39:53;;;;;;;469.13;447.50;;;11.40;99.90;;;;;;4403307;32;20230;-70
2021/10/06 07:42:20;;;;;;;436.10;415.77;;;11.40;99.90;;;;;;4410034;32;20262;-70
2021/10/06 07:44:57;;;;;;;475.83;452.87;;;11.50;99.90;;;;;;4404321;32;20170;-69
2021/10/06 07:47:27;;;;;;;475.27;452.63;;;11.50;99.90;;;;;;4407352;32;20172;-71
2021/10/06 07:49:56;;;;;;;444.07;423.07;;;11.50;99.90;;;;;;4407135;32;20198;-70
2021/10/06 07:52:28;;;;;;;467.53;444.63;;;11.50;99.90;;;;;;4409480;32;20241;-69
2021/10/06 07:54:55;;;;;;;468.33;446.13;;;11.60;99.90;;;;;;4344174;32;2093775;-71
2021/10/06 07:57:22;;;;;;;467.97;445.90;;;11.70;99.90;;;;;;4399709;32;20158;-69
2021/10/06 07:59:50;;;;;;;467.50;444.93;;;11.70;99.90;;;;;;4407613;32;20157;-69
2021/10/06 08:02:17;;;;;;;478.97;455.60;;;11.80;99.90;;;;;;4406710;32;20152;-70
2021/10/06 08:04:43;;;;;;;499.33;474.97;;;11.90;99.90;;;;;;4406474;32;20163;-69
2021/10/06 08:07:10;;;;;;;490.23;466.83;;;12.10;99.90;;;;;;4407304;32;20199;-69
2021/10/06 08:09:37;;;;;;;465.53;444.03;;;12.30;99.90;;;;;;4405748;32;20170;-69
2021/10/06 08:12:04;;;;;;;441.07;420.70;;;12.20;99.90;;;;;;4405870;32;20136;-70
2021/10/06 08:14:31;;;;;;;471.90;449.13;;;12.10;99.90;;;;;;4405748;32;20158;-70
2021/10/06 08:16:59;;;;;;;457.20;436.07;;;12.00;99.90;;;;;;4406443;32;20597;-71
2021/10/06 08:19:26;;;;;;;467.87;446.03;;;12.00;99.90;;;;;;4405481;32;20467;-70
2021/10/06 08:21:53;;;;;;;468.50;445.50;;;12.10;99.90;;;;;;4404800;32;20219;-70
2021/10/06 08:24:20;;;;;;;465.60;444.13;;;12.30;99.90;;;;;;4406356;32;20195;-70
2021/10/06 08:26:48;;;;;;;479.50;456.87;;;12.40;99.90;;;;;;4405005;32;20594;-69
2021/10/06 08:29:15;;;;;;;471.93;449.57;;;12.40;99.90;;;;;;4405084;32;20185;-71
2021/10/06 08:31:47;;;;;;;450.40;429.73;;;12.30;99.90;;;;;;4404923;32;20152;-70
2021/10/06 08:34:21;;;;;;;444.87;424.50;;;12.20;99.90;;;;;;4405343;32;20140;-70
2021/10/06 08:36:51;;;;;;;444.90;424.73;;;12.20;99.90;;;;;;4405112;32;20167;-70
2021/10/06 08:39:21;;;;;;;439.07;419.23;;;12.20;99.90;;;;;;4399096;32;20163;-69
2021/10/06 08:41:52;;;;;;;423.53;404.73;;;12.20;99.90;;;;;;4404755;32;20186;-69
2021/10/06 08:44:23;;;;;;;447.17;427.43;;;12.20;99.90;;;;;;4404697;32;20167;-70
2021/10/06 08:46:50;;;;;;;434.93;415.53;;;12.10;99.90;;;;;;4404390;32;20182;-70
2021/10/06 08:49:20;;;;;;;450.57;430.40;;;12.20;99.90;;;;;;4405222;32;20436;-69
2021/10/06 08:51:48;;;;;;;442.33;422.63;;;12.50;99.90;;;;;;4405731;32;20151;-69
2021/10/06 08:54:15;;;;;;;413.30;395.00;;;12.70;99.90;;;;;;4391572;32;20144;-70
2021/10/06 08:56:43;;;;;;;429.30;410.03;;;12.80;99.90;;;;;;4390142;32;20437;-70
2021/10/06 08:59:10;;;;;;;434.67;415.37;;;12.90;99.90;;;;;;4390765;32;20167;-69
2021/10/06 09:01:43;;;;;;;394.53;377.53;;;13.00;99.90;;;;;;4404408;32;20180;-70
2021/10/06 09:04:11;;;;;;;384.07;367.53;;;13.00;99.90;;;;;;4404612;32;20244;-69
2021/10/06 09:06:42;;;;;;;377.97;362.07;;;12.90;99.90;;;;;;4404782;32;20167;-69
2021/10/06 09:09:18;;;;;;;388.33;371.90;;;12.70;99.90;;;;;;4404595;32;20144;-69
2021/10/06 09:11:46;;;;;;;390.93;374.27;;;12.60;99.90;;;;;;4404876;32;20148;-71
2021/10/06 09:14:13;;;;;;;401.47;384.03;;;12.50;99.90;;;;;;4405157;32;20171;-69
2021/10/06 09:16:41;;;;;;;412.83;394.80;;;12.40;99.90;;;;;;4404885;32;20179;-71
2021/10/06 09:19:10;;;;;;;425.60;406.50;;;12.50;99.90;;;;;;4404978;32;20148;-70
2021/10/06 09:21:57;;;;;;;439.60;419.33;;;12.70;99.90;;;;;;4402639;32;20168;-69
2021/10/06 09:24:25;;;;;;;435.80;415.83;;;13.10;99.90;;;;;;4400099;32;20246;-69
2021/10/06 09:27:11;;;;;;;439.10;419.23;;;13.10;99.90;;;;;;4405050;32;20167;-69
2021/10/06 09:29:48;;;;;;;424.83;405.30;;;13.20;99.90;;;;;;4404032;32;20171;-70
2021/10/06 09:32:22;;;;;;;416.00;397.37;;;13.30;99.90;;;;;;4401539;32;20563;-70
2021/10/06 09:35:00;;;;;;;439.60;419.33;;;13.40;99.90;;;;;;4405265;32;20238;-69
2021/10/06 09:37:29;;;;;;;441.73;421.20;;;13.50;99.90;;;;;;4403776;32;20151;-69
2021/10/06 09:40:01;;;;;;;453.77;432.57;;;13.80;99.90;;;;;;4404503;32;20583;-70
2021/10/06 09:42:28;;;;;;;444.03;423.07;;;14.00;99.90;;;;;;4404469;32;20491;-71
2021/10/06 09:44:57;;;;;;;445.47;425.37;;;14.00;99.90;;;;;;4406291;32;20589;-69
2021/10/06 09:47:24;;;;;;;405.90;387.80;;;13.90;99.90;;;;;;4404379;32;20164;-71
2021/10/06 09:49:56;;;;;;;428.37;408.83;;;13.90;99.90;;;;;;4404632;32;20197;-69
2021/10/06 09:52:25;;;;;;;434.57;414.90;;;14.20;99.90;;;;;;4405109;32;20160;-71
2021/10/06 09:54:54;;;;;;;407.03;388.77;;;14.40;99.90;;;;;;4407512;32;20242;-70
2021/10/06 09:57:28;;;;;;;413.43;395.27;;;14.30;99.90;;;;;;4407359;32;20206;-71
2021/10/06 09:59:56;;;;;;;418.93;400.57;;;14.10;99.90;;;;;;4407397;32;20152;-70
2021/10/06 10:02:25;;;;;;;436.90;417.20;;;14.00;99.90;;;;;;4406841;32;20172;-71
2021/10/06 10:04:53;;;;;;;423.73;404.77;;;14.10;99.90;;;;;;4408489;32;20492;-71
2021/10/06 10:07:24;;;;;;;446.10;425.40;;;14.20;99.90;;;;;;4407417;32;20196;-71
2021/10/06 10:09:51;;;;;;;467.30;446.00;;;14.50;99.90;;;;;;4407465;32;20596;-70
2021/10/06 10:12:27;;;;;;;446.77;426.13;;;15.00;99.90;;;;;;4407377;32;20463;-71
2021/10/06 10:14:55;;;;;;;454.47;433.67;;;15.00;99.90;;;;;;4408116;32;20241;-72
2021/10/06 10:17:23;;;;;;;428.30;409.13;;;14.90;99.90;;;;;;4407313;32;20148;-71
2021/10/06 10:19:54;;;;;;;423.97;405.07;;;14.70;99.90;;;;;;4407262;32;20572;-70
2021/10/06 10:22:22;;;;;;;431.97;412.17;;;14.50;99.90;;;;;;4392311;32;20144;-71
2021/10/06 10:24:50;;;;;;;434.43;415.10;;;14.50;99.90;;;;;;4405598;32;20155;-71
2021/10/06 10:27:21;;;;;;;428.90;409.67;;;14.40;99.90;;;;;;4407222;32;20165;-72
2021/10/06 10:29:50;;;;;;;438.43;418.37;;;14.20;99.90;;;;;;4408789;32;20564;-72
2021/10/06 10:32:19;;;;;;;445.03;424.67;;;14.00;99.90;;;;;;4408095;32;20564;-72
2021/10/06 10:35:00;;;;;;;430.37;410.40;;;13.80;99.90;;;;;;4404762;32;20266;-70
2021/10/06 10:38:03;;;;;;;431.20;411.90;;;13.70;99.90;;;;;;4404573;32;20151;-72
2021/10/06 10:40:45;;;;;;;462.37;441.10;;;13.70;99.90;;;;;;4376023;32;20196;-71
2021/10/06 10:43:15;;;;;;;438.73;418.23;;;13.70;99.90;;;;;;4375342;32;20155;-72
2021/10/06 10:45:44;;;;;;;466.10;444.60;;;13.70;99.90;;;;;;4374521;32;20172;-71
2021/10/06 10:48:13;;;;;;;485.90;462.90;;;13.80;99.90;;;;;;4376456;32;20204;-70
2021/10/06 10:51:06;;;;;;;480.93;458.47;;;14.00;99.90;;;;;;4384376;32;20166;-71
2021/10/06 10:53:59;;;;;;;481.07;458.70;;;14.20;99.90;;;;;;4361906;32;20200;-72
2021/10/06 10:56:49;;;;;;;460.47;438.87;;;14.30;99.90;;;;;;4368429;32;20179;-71
2021/10/06 10:59:23;;;;;;;476.50;454.30;;;14.20;99.90;;;;;;4378940;32;20202;-71
2021/10/06 11:01:58;;;;;;;498.93;475.40;;;14.20;99.90;;;;;;4372591;32;20235;-72
2021/10/06 11:04:30;;;;;;;497.53;473.83;;;14.30;99.90;;;;;;4365589;32;20559;-70
2021/10/06 11:07:12;;;;;;;476.77;454.47;;;14.20;99.90;;;;;;4368455;32;20528;-71
2021/10/06 11:09:52;;;;;;;475.23;452.60;;;14.20;99.90;;;;;;4368325;32;20174;-71
2021/10/06 11:12:52;;;;;;;447.40;426.63;;;14.10;99.90;;;;;;4364692;32;20163;-71
2021/10/06 11:15:32;;;;;;;443.00;422.00;;;14.10;99.90;;;;;;4363574;32;20171;-73
2021/10/06 11:18:19;;;;;;;458.03;436.60;;;14.00;99.90;;;;;;4388756;32;20143;-71
2021/10/06 11:20:56;;;;;;;444.53;424.33;;;14.00;99.90;;;;;;4408131;32;20562;-72
2021/10/06 11:23:53;;;;;;;458.77;437.17;;;13.90;99.90;;;;;;4406153;32;20173;-70
2021/10/06 11:26:26;;;;;;;459.00;438.13;;;13.90;99.90;;;;;;4405762;32;20152;-73
2021/10/06 11:29:06;;;;;;;465.23;443.47;;;13.80;99.90;;;;;;4392611;32;20642;-72
2021/10/06 11:31:41;;;;;;;458.93;437.33;;;14.00;99.90;;;;;;4402662;32;20167;-70
2021/10/06 11:34:20;;;;;;;473.17;450.97;;;14.10;99.90;;;;;;4403619;32;20197;-70
2021/10/06 11:36:53;;;;;;;479.03;456.50;;;14.40;99.90;;;;;;4406608;32;20561;-69
2021/10/06 11:39:22;;;;;;;474.17;452.60;;;14.40;99.90;;;;;;4405606;32;20154;-70
2021/10/06 11:41:53;;;;;;;462.77;441.47;;;14.30;99.90;;;;;;4405681;32;20450;-71
2021/10/06 11:44:39;;;;;;;474.80;453.17;;;14.30;99.90;;;;;;4406560;32;20571;-71
2021/10/06 11:47:12;;;;;;;480.50;458.20;;;14.50;99.90;;;;;;4403483;32;20160;-71
2021/10/06 11:49:49;;;;;;;475.33;453.37;;;14.70;99.90;;;;;;4404466;32;20144;-71
2021/10/06 11:52:23;;;;;;;479.37;457.40;;;14.60;99.90;;;;;;4400270;32;20150;-71
2021/10/06 11:54:54;;;;;;;480.07;457.87;;;14.70;99.90;;;;;;4392893;32;20155;-71
2021/10/06 11:57:26;;;;;;;459.53;438.80;;;14.90;99.90;;;;;;4406715;32;20262;-70
2021/10/06 11:59:56;;;;;;;440.90;420.77;;;14.80;99.90;;;;;;4405922;32;20166;-70
2021/10/06 12:02:30;;;;;;;431.33;411.63;;;14.60;99.90;;;;;;4405880;32;20140;-70
2021/10/06 12:05:00;;;;;;;441.70;422.03;;;14.40;99.90;;;;;;4414711;32;20170;-70
2021/10/06 12:07:32;;;;;;;441.10;420.87;;;14.30;99.90;;;;;;4392363;32;20437;-71
2021/10/06 12:10:04;;;;;;;440.80;420.70;;;14.30;99.90;;;;;;4390900;32;20156;-73
2021/10/06 12:12:46;;;;;;;447.60;427.50;;;14.40;99.90;;;;;;4412745;32;20148;-70
2021/10/06 12:15:15;;;;;;;445.83;425.67;;;14.30;99.90;;;;;;4407234;32;20192;-72
2021/10/06 12:17:45;;;;;;;435.87;416.13;;;14.10;99.90;;;;;;4406615;32;20535;-73
2021/10/06 12:20:14;;;;;;;440.73;420.40;;;14.10;99.90;;;;;;4407181;32;20160;-71
2021/10/06 12:22:43;;;;;;;478.93;456.93;;;14.00;99.90;;;;;;4405334;32;20182;-72
2021/10/06 12:25:21;;;;;;;472.87;450.60;;;14.20;99.90;;;;;;4405147;32;20576;-71
2021/10/06 12:27:50;;;;;;;484.13;461.37;;;14.60;99.90;;;;;;4405415;32;20568;-72
2021/10/06 12:30:22;;;;;;;494.70;471.30;;;14.90;99.90;;;;;;4404316;32;20160;-71
2021/10/06 12:33:02;;;;;;;474.73;453.07;;;15.00;99.90;;;;;;4402782;32;20171;-71
2021/10/06 12:35:38;;;;;;;473.30;451.60;;;14.80;99.90;;;;;;4399973;32;20162;-73
2021/10/06 12:38:07;;;;;;;473.23;451.13;;;14.70;99.90;;;;;;4417669;32;20177;-71
2021/10/06 12:40:39;;;;;;;490.07;467.30;;;14.50;99.90;;;;;;4396907;32;20151;-73
2021/10/06 12:43:08;;;;;;;488.77;465.93;;;14.50;99.90;;;;;;4401817;32;20186;-71